sensor_id;sensor_type;location;lat;lon;timestamp;P1;durP1;ratioP1;P2;durP2;ratioP2
78197;SDS011;67472;51.554;7.812;2023-06-26T00:00:49;7.70;;;5.63;;
78197;SDS011;67472;51.554;7.812;2023-06-26T00:03:37;7.20;;;5.40;;
78197;SDS011;67472;51.554;7.812;2023-06-26T00:06:29;7.47;;;5.00;;
78197;SDS011;67472;51.554;7.812;2023-06-26T00:09:20;10.52;;;5.57;;
78197;SDS011;67472;51.554;7.812;2023-06-26T00:12:06;6.35;;;5.30;;
78197;SDS011;67472;51.554;7.812;2023-06-26T00:14:53;5.70;;;4.90;;
78197;SDS011;67472;51.554;7.812;2023-06-26T00:17:53;7.07;;;4.80;;
78197;SDS011;67472;51.554;7.812;2023-06-26T00:20:45;13.30;;;5.40;;
78197;SDS011;67472;51.554;7.812;2023-06-26T00:23:45;6.78;;;5.43;;
78197;SDS011;67472;51.554;7.812;2023-06-26T00:26:52;6.07;;;5.20;;
78197;SDS011;67472;51.554;7.812;2023-06-26T00:29:50;5.45;;;4.82;;
78197;SDS011;67472;51.554;7.812;2023-06-26T00:32:40;5.47;;;4.97;;
78197;SDS011;67472;51.554;7.812;2023-06-26T00:35:26;8.77;;;5.15;;
78197;SDS011;67472;51.554;7.812;2023-06-26T00:38:12;6.93;;;5.65;;
78197;SDS011;67472;51.554;7.812;2023-06-26T00:41:04;6.38;;;5.60;;
78197;SDS011;67472;51.554;7.812;2023-06-26T00:44:06;5.60;;;5.05;;
78197;SDS011;67472;51.554;7.812;2023-06-26T00:46:52;7.00;;;6.00;;
78197;SDS011;67472;51.554;7.812;2023-06-26T00:49:39;7.57;;;5.07;;
78197;SDS011;67472;51.554;7.812;2023-06-26T00:52:43;5.68;;;4.47;;
78197;SDS011;67472;51.554;7.812;2023-06-26T00:55:33;6.75;;;5.47;;
78197;SDS011;67472;51.554;7.812;2023-06-26T00:58:22;7.72;;;5.53;;
78197;SDS011;67472;51.554;7.812;2023-06-26T01:01:26;6.40;;;5.25;;
78197;SDS011;67472;51.554;7.812;2023-06-26T01:04:12;5.78;;;4.97;;
78197;SDS011;67472;51.554;7.812;2023-06-26T01:07:02;6.30;;;4.50;;
78197;SDS011;67472;51.554;7.812;2023-06-26T01:09:56;5.30;;;4.80;;
78197;SDS011;67472;51.554;7.812;2023-06-26T01:12:45;7.28;;;5.18;;
78197;SDS011;67472;51.554;7.812;2023-06-26T01:15:45;6.35;;;5.45;;
78197;SDS011;67472;51.554;7.812;2023-06-26T01:18:34;6.75;;;4.85;;
78197;SDS011;67472;51.554;7.812;2023-06-26T01:21:28;6.20;;;4.70;;
78197;SDS011;67472;51.554;7.812;2023-06-26T01:24:19;5.95;;;5.20;;
78197;SDS011;67472;51.554;7.812;2023-06-26T01:27:16;7.38;;;4.60;;
78197;SDS011;67472;51.554;7.812;2023-06-26T01:30:09;8.90;;;4.80;;
78197;SDS011;67472;51.554;7.812;2023-06-26T01:32:56;6.13;;;4.90;;
78197;SDS011;67472;51.554;7.812;2023-06-26T01:35:44;7.28;;;5.30;;
78197;SDS011;67472;51.554;7.812;2023-06-26T01:38:39;7.30;;;5.25;;
78197;SDS011;67472;51.554;7.812;2023-06-26T01:41:25;7.97;;;5.15;;
78197;SDS011;67472;51.554;7.812;2023-06-26T01:44:26;5.82;;;5.00;;
78197;SDS011;67472;51.554;7.812;2023-06-26T01:47:14;9.52;;;5.05;;
78197;SDS011;67472;51.554;7.812;2023-06-26T01:50:17;6.68;;;4.93;;
78197;SDS011;67472;51.554;7.812;2023-06-26T01:53:11;5.55;;;4.55;;
78197;SDS011;67472;51.554;7.812;2023-06-26T01:56:05;5.15;;;4.35;;
78197;SDS011;67472;51.554;7.812;2023-06-26T01:59:02;6.90;;;4.90;;
78197;SDS011;67472;51.554;7.812;2023-06-26T02:01:51;5.45;;;4.88;;
78197;SDS011;67472;51.554;7.812;2023-06-26T02:04:38;8.45;;;4.75;;
78197;SDS011;67472;51.554;7.812;2023-06-26T02:07:25;4.90;;;4.40;;
78197;SDS011;67472;51.554;7.812;2023-06-26T02:10:16;6.28;;;4.93;;
78197;SDS011;67472;51.554;7.812;2023-06-26T02:13:09;5.55;;;4.95;;
78197;SDS011;67472;51.554;7.812;2023-06-26T02:15:58;5.50;;;4.72;;
78197;SDS011;67472;51.554;7.812;2023-06-26T02:18:55;6.68;;;5.00;;
78197;SDS011;67472;51.554;7.812;2023-06-26T02:22:05;10.02;;;5.30;;
78197;SDS011;67472;51.554;7.812;2023-06-26T02:24:52;5.57;;;4.97;;
78197;SDS011;67472;51.554;7.812;2023-06-26T02:27:42;6.57;;;5.45;;
78197;SDS011;67472;51.554;7.812;2023-06-26T02:30:45;5.78;;;4.72;;
78197;SDS011;67472;51.554;7.812;2023-06-26T02:33:36;6.00;;;4.88;;
78197;SDS011;67472;51.554;7.812;2023-06-26T02:36:26;9.68;;;5.35;;
78197;SDS011;67472;51.554;7.812;2023-06-26T02:39:24;8.13;;;5.20;;
78197;SDS011;67472;51.554;7.812;2023-06-26T02:42:15;6.32;;;4.75;;
78197;SDS011;67472;51.554;7.812;2023-06-26T02:45:07;5.95;;;4.80;;
78197;SDS011;67472;51.554;7.812;2023-06-26T02:48:01;8.75;;;5.15;;
78197;SDS011;67472;51.554;7.812;2023-06-26T02:50:51;10.00;;;5.30;;
78197;SDS011;67472;51.554;7.812;2023-06-26T02:53:47;5.60;;;4.57;;
78197;SDS011;67472;51.554;7.812;2023-06-26T02:56:33;7.32;;;4.80;;
78197;SDS011;67472;51.554;7.812;2023-06-26T02:59:25;8.13;;;4.35;;
78197;SDS011;67472;51.554;7.812;2023-06-26T03:02:19;5.57;;;4.63;;
78197;SDS011;67472;51.554;7.812;2023-06-26T03:05:12;4.93;;;4.40;;
78197;SDS011;67472;51.554;7.812;2023-06-26T03:08:10;5.15;;;4.63;;
78197;SDS011;67472;51.554;7.812;2023-06-26T03:10:58;9.43;;;4.72;;
78197;SDS011;67472;51.554;7.812;2023-06-26T03:13:45;8.02;;;4.90;;
78197;SDS011;67472;51.554;7.812;2023-06-26T03:16:50;7.90;;;4.80;;
78197;SDS011;67472;51.554;7.812;2023-06-26T03:19:38;6.63;;;4.30;;
78197;SDS011;67472;51.554;7.812;2023-06-26T03:22:47;6.40;;;4.95;;
78197;SDS011;67472;51.554;7.812;2023-06-26T03:25:35;5.70;;;4.80;;
78197;SDS011;67472;51.554;7.812;2023-06-26T03:28:41;5.55;;;4.90;;
78197;SDS011;67472;51.554;7.812;2023-06-26T03:31:45;6.88;;;4.72;;
78197;SDS011;67472;51.554;7.812;2023-06-26T03:34:32;5.05;;;4.50;;
78197;SDS011;67472;51.554;7.812;2023-06-26T03:37:19;12.55;;;4.78;;
78197;SDS011;67472;51.554;7.812;2023-06-26T03:40:08;7.05;;;4.78;;
78197;SDS011;67472;51.554;7.812;2023-06-26T03:43:01;8.00;;;4.70;;
78197;SDS011;67472;51.554;7.812;2023-06-26T03:46:13;5.47;;;4.95;;
78197;SDS011;67472;51.554;7.812;2023-06-26T03:49:28;5.68;;;5.07;;
78197;SDS011;67472;51.554;7.812;2023-06-26T03:52:28;5.57;;;4.68;;
78197;SDS011;67472;51.554;7.812;2023-06-26T03:55:19;5.82;;;4.57;;
78197;SDS011;67472;51.554;7.812;2023-06-26T03:58:09;5.63;;;4.18;;
78197;SDS011;67472;51.554;7.812;2023-06-26T04:01:05;6.82;;;5.00;;
78197;SDS011;67472;51.554;7.812;2023-06-26T04:03:55;5.25;;;4.60;;
78197;SDS011;67472;51.554;7.812;2023-06-26T04:06:45;8.25;;;4.65;;
78197;SDS011;67472;51.554;7.812;2023-06-26T04:09:31;4.82;;;4.32;;
78197;SDS011;67472;51.554;7.812;2023-06-26T04:12:22;5.55;;;5.00;;
78197;SDS011;67472;51.554;7.812;2023-06-26T04:15:09;5.38;;;4.07;;
78197;SDS011;67472;51.554;7.812;2023-06-26T04:18:00;5.00;;;4.45;;
78197;SDS011;67472;51.554;7.812;2023-06-26T04:21:07;4.93;;;4.43;;
78197;SDS011;67472;51.554;7.812;2023-06-26T04:23:56;6.07;;;5.25;;
78197;SDS011;67472;51.554;7.812;2023-06-26T04:26:42;10.60;;;4.70;;
78197;SDS011;67472;51.554;7.812;2023-06-26T04:29:30;6.10;;;5.00;;
78197;SDS011;67472;51.554;7.812;2023-06-26T04:32:20;12.90;;;5.25;;
78197;SDS011;67472;51.554;7.812;2023-06-26T04:35:13;5.55;;;4.85;;
78197;SDS011;67472;51.554;7.812;2023-06-26T04:38:00;8.60;;;5.68;;
78197;SDS011;67472;51.554;7.812;2023-06-26T04:40:49;4.70;;;4.28;;
78197;SDS011;67472;51.554;7.812;2023-06-26T04:43:42;5.45;;;4.78;;
78197;SDS011;67472;51.554;7.812;2023-06-26T04:46:28;6.95;;;5.07;;
78197;SDS011;67472;51.554;7.812;2023-06-26T04:49:18;9.05;;;5.20;;
78197;SDS011;67472;51.554;7.812;2023-06-26T04:52:09;7.13;;;5.80;;
78197;SDS011;67472;51.554;7.812;2023-06-26T04:55:00;5.57;;;4.85;;
78197;SDS011;67472;51.554;7.812;2023-06-26T04:57:56;5.38;;;4.88;;
78197;SDS011;67472;51.554;7.812;2023-06-26T05:00:42;5.03;;;4.53;;
78197;SDS011;67472;51.554;7.812;2023-06-26T05:03:31;5.78;;;5.07;;
78197;SDS011;67472;51.554;7.812;2023-06-26T05:06:29;5.85;;;5.25;;
78197;SDS011;67472;51.554;7.812;2023-06-26T05:09:15;6.47;;;5.18;;
78197;SDS011;67472;51.554;7.812;2023-06-26T05:12:04;7.47;;;5.35;;
78197;SDS011;67472;51.554;7.812;2023-06-26T05:14:52;10.98;;;5.57;;
78197;SDS011;67472;51.554;7.812;2023-06-26T05:17:39;6.72;;;5.45;;
78197;SDS011;67472;51.554;7.812;2023-06-26T05:20:26;7.50;;;5.10;;
78197;SDS011;67472;51.554;7.812;2023-06-26T05:23:12;9.30;;;5.65;;
78197;SDS011;67472;51.554;7.812;2023-06-26T05:26:00;6.82;;;5.32;;
78197;SDS011;67472;51.554;7.812;2023-06-26T05:28:58;6.22;;;4.80;;
78197;SDS011;67472;51.554;7.812;2023-06-26T05:31:45;10.73;;;5.88;;
78197;SDS011;67472;51.554;7.812;2023-06-26T05:34:38;8.27;;;5.30;;
78197;SDS011;67472;51.554;7.812;2023-06-26T05:37:27;7.30;;;5.47;;
78197;SDS011;67472;51.554;7.812;2023-06-26T05:40:26;7.57;;;5.85;;
78197;SDS011;67472;51.554;7.812;2023-06-26T05:43:29;6.75;;;5.50;;
78197;SDS011;67472;51.554;7.812;2023-06-26T05:46:40;6.05;;;5.40;;
78197;SDS011;67472;51.554;7.812;2023-06-26T05:49:51;10.38;;;5.80;;
78197;SDS011;67472;51.554;7.812;2023-06-26T05:52:38;8.70;;;5.80;;
78197;SDS011;67472;51.554;7.812;2023-06-26T05:55:25;7.60;;;5.50;;
78197;SDS011;67472;51.554;7.812;2023-06-26T05:58:12;9.25;;;5.70;;
78197;SDS011;67472;51.554;7.812;2023-06-26T06:01:00;14.63;;;5.50;;
78197;SDS011;67472;51.554;7.812;2023-06-26T06:03:47;6.03;;;5.47;;
78197;SDS011;67472;51.554;7.812;2023-06-26T06:06:38;7.05;;;5.40;;
78197;SDS011;67472;51.554;7.812;2023-06-26T06:09:28;8.43;;;5.13;;
78197;SDS011;67472;51.554;7.812;2023-06-26T06:12:16;6.63;;;5.65;;
78197;SDS011;67472;51.554;7.812;2023-06-26T06:15:03;7.28;;;5.60;;
78197;SDS011;67472;51.554;7.812;2023-06-26T06:17:51;8.38;;;5.85;;
78197;SDS011;67472;51.554;7.812;2023-06-26T06:20:38;6.25;;;5.38;;
78197;SDS011;67472;51.554;7.812;2023-06-26T06:23:25;10.73;;;5.90;;
78197;SDS011;67472;51.554;7.812;2023-06-26T06:26:18;9.50;;;6.28;;
78197;SDS011;67472;51.554;7.812;2023-06-26T06:29:12;11.30;;;5.95;;
78197;SDS011;67472;51.554;7.812;2023-06-26T06:32:08;10.10;;;6.00;;
78197;SDS011;67472;51.554;7.812;2023-06-26T06:34:57;8.98;;;6.03;;
78197;SDS011;67472;51.554;7.812;2023-06-26T06:37:52;8.95;;;6.47;;
78197;SDS011;67472;51.554;7.812;2023-06-26T06:40:40;10.20;;;5.60;;
78197;SDS011;67472;51.554;7.812;2023-06-26T06:43:27;9.77;;;6.35;;
78197;SDS011;67472;51.554;7.812;2023-06-26T06:46:16;10.80;;;6.68;;
78197;SDS011;67472;51.554;7.812;2023-06-26T06:49:02;10.45;;;6.22;;
78197;SDS011;67472;51.554;7.812;2023-06-26T06:51:49;10.20;;;7.00;;
78197;SDS011;67472;51.554;7.812;2023-06-26T06:54:52;11.35;;;6.22;;
78197;SDS011;67472;51.554;7.812;2023-06-26T06:57:39;7.90;;;5.95;;
78197;SDS011;67472;51.554;7.812;2023-06-26T07:00:27;12.02;;;6.78;;
78197;SDS011;67472;51.554;7.812;2023-06-26T07:03:18;9.30;;;6.70;;
78197;SDS011;67472;51.554;7.812;2023-06-26T07:06:13;11.95;;;7.03;;
78197;SDS011;67472;51.554;7.812;2023-06-26T07:09:00;10.20;;;6.40;;
78197;SDS011;67472;51.554;7.812;2023-06-26T07:11:50;10.15;;;7.45;;
78197;SDS011;67472;51.554;7.812;2023-06-26T07:14:39;8.10;;;6.65;;
78197;SDS011;67472;51.554;7.812;2023-06-26T07:17:26;15.00;;;6.88;;
78197;SDS011;67472;51.554;7.812;2023-06-26T07:20:13;8.93;;;6.68;;
78197;SDS011;67472;51.554;7.812;2023-06-26T07:23:01;8.60;;;6.97;;
78197;SDS011;67472;51.554;7.812;2023-06-26T07:25:48;11.07;;;7.10;;
78197;SDS011;67472;51.554;7.812;2023-06-26T07:28:39;7.95;;;6.80;;
78197;SDS011;67472;51.554;7.812;2023-06-26T07:31:27;9.07;;;6.63;;
78197;SDS011;67472;51.554;7.812;2023-06-26T07:34:17;14.50;;;6.90;;
78197;SDS011;67472;51.554;7.812;2023-06-26T07:37:05;11.07;;;6.20;;
78197;SDS011;67472;51.554;7.812;2023-06-26T07:39:53;10.98;;;6.47;;
78197;SDS011;67472;51.554;7.812;2023-06-26T07:42:45;11.02;;;6.85;;
78197;SDS011;67472;51.554;7.812;2023-06-26T07:45:33;10.65;;;5.93;;
78197;SDS011;67472;51.554;7.812;2023-06-26T07:48:19;12.70;;;6.95;;
78197;SDS011;67472;51.554;7.812;2023-06-26T07:51:07;14.40;;;6.38;;
78197;SDS011;67472;51.554;7.812;2023-06-26T07:53:58;12.07;;;5.85;;
78197;SDS011;67472;51.554;7.812;2023-06-26T07:56:55;8.82;;;5.90;;
78197;SDS011;67472;51.554;7.812;2023-06-26T07:59:41;9.80;;;6.00;;
78197;SDS011;67472;51.554;7.812;2023-06-26T08:02:33;8.93;;;5.95;;
78197;SDS011;67472;51.554;7.812;2023-06-26T08:05:25;10.40;;;5.63;;
78197;SDS011;67472;51.554;7.812;2023-06-26T08:08:12;11.45;;;5.00;;
78197;SDS011;67472;51.554;7.812;2023-06-26T08:10:59;12.85;;;5.88;;
78197;SDS011;67472;51.554;7.812;2023-06-26T08:13:46;9.18;;;5.55;;
78197;SDS011;67472;51.554;7.812;2023-06-26T08:16:46;11.05;;;5.28;;
78197;SDS011;67472;51.554;7.812;2023-06-26T08:19:34;8.88;;;5.38;;
78197;SDS011;67472;51.554;7.812;2023-06-26T08:22:20;11.07;;;5.18;;
78197;SDS011;67472;51.554;7.812;2023-06-26T08:25:07;13.57;;;5.15;;
78197;SDS011;67472;51.554;7.812;2023-06-26T08:27:55;14.95;;;6.13;;
78197;SDS011;67472;51.554;7.812;2023-06-26T08:30:47;6.93;;;5.35;;
78197;SDS011;67472;51.554;7.812;2023-06-26T08:33:37;14.73;;;6.80;;
78197;SDS011;67472;51.554;7.812;2023-06-26T08:36:29;10.48;;;5.32;;
78197;SDS011;67472;51.554;7.812;2023-06-26T08:39:16;10.60;;;5.90;;
78197;SDS011;67472;51.554;7.812;2023-06-26T08:42:03;15.10;;;5.75;;
78197;SDS011;67472;51.554;7.812;2023-06-26T08:44:50;9.23;;;5.47;;
78197;SDS011;67472;51.554;7.812;2023-06-26T08:47:51;9.70;;;6.18;;
78197;SDS011;67472;51.554;7.812;2023-06-26T08:50:46;15.30;;;5.65;;
78197;SDS011;67472;51.554;7.812;2023-06-26T08:53:40;12.73;;;6.70;;
78197;SDS011;67472;51.554;7.812;2023-06-26T08:56:41;11.02;;;7.10;;
78197;SDS011;67472;51.554;7.812;2023-06-26T08:59:33;12.18;;;7.13;;
78197;SDS011;67472;51.554;7.812;2023-06-26T09:02:23;14.63;;;8.93;;
78197;SDS011;67472;51.554;7.812;2023-06-26T09:05:12;14.63;;;9.30;;
78197;SDS011;67472;51.554;7.812;2023-06-26T09:07:59;14.60;;;9.60;;
78197;SDS011;67472;51.554;7.812;2023-06-26T09:10:49;13.35;;;9.77;;
78197;SDS011;67472;51.554;7.812;2023-06-26T09:13:43;16.85;;;10.45;;
78197;SDS011;67472;51.554;7.812;2023-06-26T09:16:33;17.95;;;10.40;;
78197;SDS011;67472;51.554;7.812;2023-06-26T09:19:32;16.85;;;10.60;;
78197;SDS011;67472;51.554;7.812;2023-06-26T09:22:22;15.45;;;11.55;;
78197;SDS011;67472;51.554;7.812;2023-06-26T09:25:18;15.48;;;11.25;;
78197;SDS011;67472;51.554;7.812;2023-06-26T09:28:09;14.07;;;10.52;;
78197;SDS011;67472;51.554;7.812;2023-06-26T09:31:00;13.77;;;9.18;;
78197;SDS011;67472;51.554;7.812;2023-06-26T09:33:49;11.10;;;6.50;;
78197;SDS011;67472;51.554;7.812;2023-06-26T09:36:43;9.20;;;6.63;;
78197;SDS011;67472;51.554;7.812;2023-06-26T09:39:31;13.23;;;7.88;;
78197;SDS011;67472;51.554;7.812;2023-06-26T09:42:25;11.95;;;5.93;;
78197;SDS011;67472;51.554;7.812;2023-06-26T09:45:19;10.88;;;5.57;;
78197;SDS011;67472;51.554;7.812;2023-06-26T09:48:13;17.75;;;6.28;;
78197;SDS011;67472;51.554;7.812;2023-06-26T09:51:01;8.23;;;6.18;;
78197;SDS011;67472;51.554;7.812;2023-06-26T09:53:49;12.00;;;5.93;;
78197;SDS011;67472;51.554;7.812;2023-06-26T09:56:47;11.40;;;6.10;;
78197;SDS011;67472;51.554;7.812;2023-06-26T09:59:35;11.82;;;5.20;;
78197;SDS011;67472;51.554;7.812;2023-06-26T10:02:24;15.52;;;5.70;;
78197;SDS011;67472;51.554;7.812;2023-06-26T10:05:12;8.48;;;5.35;;
78197;SDS011;67472;51.554;7.812;2023-06-26T10:08:02;9.98;;;5.38;;
78197;SDS011;67472;51.554;7.812;2023-06-26T10:10:53;24.77;;;7.80;;
78197;SDS011;67472;51.554;7.812;2023-06-26T10:13:45;18.20;;;7.20;;
78197;SDS011;67472;51.554;7.812;2023-06-26T10:16:36;10.80;;;5.50;;
78197;SDS011;67472;51.554;7.812;2023-06-26T10:19:29;9.70;;;5.30;;
78197;SDS011;67472;51.554;7.812;2023-06-26T10:22:21;12.30;;;5.55;;
78197;SDS011;67472;51.554;7.812;2023-06-26T10:25:18;10.77;;;4.40;;
78197;SDS011;67472;51.554;7.812;2023-06-26T10:28:10;10.95;;;4.93;;
78197;SDS011;67472;51.554;7.812;2023-06-26T10:31:04;8.32;;;4.57;;
78197;SDS011;67472;51.554;7.812;2023-06-26T10:33:55;8.45;;;4.32;;
78197;SDS011;67472;51.554;7.812;2023-06-26T10:36:43;8.13;;;4.60;;
78197;SDS011;67472;51.554;7.812;2023-06-26T10:39:39;7.78;;;4.90;;
78197;SDS011;67472;51.554;7.812;2023-06-26T10:42:35;7.25;;;4.65;;
78197;SDS011;67472;51.554;7.812;2023-06-26T10:45:27;8.40;;;4.47;;
78197;SDS011;67472;51.554;7.812;2023-06-26T10:48:21;7.10;;;3.58;;
78197;SDS011;67472;51.554;7.812;2023-06-26T10:51:14;7.03;;;3.47;;
78197;SDS011;67472;51.554;7.812;2023-06-26T10:54:03;7.22;;;3.72;;
78197;SDS011;67472;51.554;7.812;2023-06-26T10:56:54;11.73;;;3.85;;
78197;SDS011;67472;51.554;7.812;2023-06-26T10:59:45;7.43;;;3.03;;
78197;SDS011;67472;51.554;7.812;2023-06-26T11:02:46;5.90;;;3.40;;
78197;SDS011;67472;51.554;7.812;2023-06-26T11:05:35;6.25;;;3.30;;
78197;SDS011;67472;51.554;7.812;2023-06-26T11:08:36;7.55;;;3.45;;
78197;SDS011;67472;51.554;7.812;2023-06-26T11:14:51;8.45;;;3.25;;
78197;SDS011;67472;51.554;7.812;2023-06-26T11:17:44;11.77;;;3.25;;
78197;SDS011;67472;51.554;7.812;2023-06-26T11:20:44;7.45;;;2.97;;
78197;SDS011;67472;51.554;7.812;2023-06-26T11:23:32;7.90;;;3.22;;
78197;SDS011;67472;51.554;7.812;2023-06-26T11:26:23;7.43;;;2.72;;
78197;SDS011;67472;51.554;7.812;2023-06-26T11:29:21;6.60;;;3.25;;
78197;SDS011;67472;51.554;7.812;2023-06-26T11:32:07;7.75;;;3.45;;
78197;SDS011;67472;51.554;7.812;2023-06-26T11:34:56;8.02;;;2.97;;
78197;SDS011;67472;51.554;7.812;2023-06-26T11:37:44;7.00;;;3.20;;
78197;SDS011;67472;51.554;7.812;2023-06-26T11:40:38;6.47;;;2.90;;
78197;SDS011;67472;51.554;7.812;2023-06-26T11:43:30;7.38;;;2.85;;
78197;SDS011;67472;51.554;7.812;2023-06-26T11:46:21;13.57;;;4.00;;
78197;SDS011;67472;51.554;7.812;2023-06-26T11:49:08;5.43;;;3.60;;
78197;SDS011;67472;51.554;7.812;2023-06-26T11:51:54;14.77;;;3.22;;
78197;SDS011;67472;51.554;7.812;2023-06-26T11:54:41;4.63;;;2.70;;
78197;SDS011;67472;51.554;7.812;2023-06-26T11:57:32;3.60;;;2.30;;
78197;SDS011;67472;51.554;7.812;2023-06-26T12:00:19;5.13;;;2.40;;
78197;SDS011;67472;51.554;7.812;2023-06-26T12:03:09;8.85;;;3.90;;
78197;SDS011;67472;51.554;7.812;2023-06-26T12:06:00;5.80;;;2.65;;
78197;SDS011;67472;51.554;7.812;2023-06-26T12:08:52;22.83;;;4.68;;
78197;SDS011;67472;51.554;7.812;2023-06-26T12:11:40;5.97;;;3.08;;
78197;SDS011;67472;51.554;7.812;2023-06-26T12:14:35;8.25;;;3.45;;
78197;SDS011;67472;51.554;7.812;2023-06-26T12:17:22;4.95;;;3.22;;
78197;SDS011;67472;51.554;7.812;2023-06-26T12:20:21;7.00;;;3.10;;
78197;SDS011;67472;51.554;7.812;2023-06-26T12:23:11;9.48;;;3.17;;
78197;SDS011;67472;51.554;7.812;2023-06-26T12:25:58;4.55;;;3.15;;
78197;SDS011;67472;51.554;7.812;2023-06-26T12:28:48;6.97;;;3.08;;
78197;SDS011;67472;51.554;7.812;2023-06-26T12:32:02;15.57;;;3.22;;
78197;SDS011;67472;51.554;7.812;2023-06-26T12:34:50;6.15;;;2.85;;
78197;SDS011;67472;51.554;7.812;2023-06-26T12:37:41;6.43;;;3.00;;
78197;SDS011;67472;51.554;7.812;2023-06-26T12:40:29;3.35;;;2.40;;
78197;SDS011;67472;51.554;7.812;2023-06-26T12:43:22;3.67;;;2.47;;
78197;SDS011;67472;51.554;7.812;2023-06-26T12:46:09;4.75;;;2.92;;
78197;SDS011;67472;51.554;7.812;2023-06-26T12:48:55;4.78;;;2.17;;
78197;SDS011;67472;51.554;7.812;2023-06-26T12:51:50;3.55;;;2.20;;
78197;SDS011;67472;51.554;7.812;2023-06-26T12:54:41;5.00;;;2.00;;
78197;SDS011;67472;51.554;7.812;2023-06-26T12:57:29;4.97;;;2.10;;
78197;SDS011;67472;51.554;7.812;2023-06-26T13:00:22;4.55;;;2.58;;
78197;SDS011;67472;51.554;7.812;2023-06-26T13:03:11;2.72;;;1.88;;
78197;SDS011;67472;51.554;7.812;2023-06-26T13:05:58;4.05;;;2.55;;
78197;SDS011;67472;51.554;7.812;2023-06-26T13:08:46;2.92;;;1.85;;
78197;SDS011;67472;51.554;7.812;2023-06-26T13:11:36;4.03;;;1.65;;
78197;SDS011;67472;51.554;7.812;2023-06-26T13:14:25;5.28;;;1.80;;
78197;SDS011;67472;51.554;7.812;2023-06-26T13:17:18;2.05;;;1.60;;
78197;SDS011;67472;51.554;7.812;2023-06-26T13:20:07;5.45;;;1.70;;
78197;SDS011;67472;51.554;7.812;2023-06-26T13:22:59;2.25;;;1.30;;
78197;SDS011;67472;51.554;7.812;2023-06-26T13:25:46;7.60;;;1.92;;
78197;SDS011;67472;51.554;7.812;2023-06-26T13:28:38;5.50;;;1.60;;
78197;SDS011;67472;51.554;7.812;2023-06-26T13:31:26;4.40;;;1.40;;
78197;SDS011;67472;51.554;7.812;2023-06-26T13:34:21;3.72;;;1.40;;
78197;SDS011;67472;51.554;7.812;2023-06-26T13:37:10;3.40;;;1.30;;
78197;SDS011;67472;51.554;7.812;2023-06-26T13:39:56;1.95;;;0.90;;
78197;SDS011;67472;51.554;7.812;2023-06-26T13:42:44;3.60;;;1.17;;
78197;SDS011;67472;51.554;7.812;2023-06-26T13:45:32;2.25;;;1.00;;
78197;SDS011;67472;51.554;7.812;2023-06-26T13:48:20;2.63;;;0.95;;
78197;SDS011;67472;51.554;7.812;2023-06-26T13:51:08;5.70;;;1.30;;
78197;SDS011;67472;51.554;7.812;2023-06-26T13:53:58;4.50;;;1.45;;
78197;SDS011;67472;51.554;7.812;2023-06-26T13:56:47;1.67;;;1.02;;
78197;SDS011;67472;51.554;7.812;2023-06-26T13:59:33;2.65;;;0.98;;
78197;SDS011;67472;51.554;7.812;2023-06-26T14:02:28;6.05;;;1.30;;
78197;SDS011;67472;51.554;7.812;2023-06-26T14:05:26;5.47;;;1.30;;
78197;SDS011;67472;51.554;7.812;2023-06-26T14:08:20;5.80;;;1.20;;
78197;SDS011;67472;51.554;7.812;2023-06-26T14:11:08;1.60;;;1.00;;
78197;SDS011;67472;51.554;7.812;2023-06-26T14:13:56;4.57;;;1.00;;
78197;SDS011;67472;51.554;7.812;2023-06-26T14:16:42;9.52;;;1.90;;
78197;SDS011;67472;51.554;7.812;2023-06-26T14:19:35;4.43;;;1.42;;
78197;SDS011;67472;51.554;7.812;2023-06-26T14:22:22;4.75;;;1.13;;
78197;SDS011;67472;51.554;7.812;2023-06-26T14:25:12;2.40;;;1.02;;
78197;SDS011;67472;51.554;7.812;2023-06-26T14:28:17;3.92;;;1.30;;
78197;SDS011;67472;51.554;7.812;2023-06-26T14:31:13;7.20;;;1.10;;
78197;SDS011;67472;51.554;7.812;2023-06-26T14:34:07;2.80;;;1.10;;
78197;SDS011;67472;51.554;7.812;2023-06-26T14:36:58;6.40;;;1.55;;
78197;SDS011;67472;51.554;7.812;2023-06-26T14:39:49;6.90;;;1.65;;
78197;SDS011;67472;51.554;7.812;2023-06-26T14:42:35;2.72;;;1.08;;
78197;SDS011;67472;51.554;7.812;2023-06-26T14:45:24;3.53;;;1.20;;
78197;SDS011;67472;51.554;7.812;2023-06-26T14:48:12;3.13;;;1.20;;
78197;SDS011;67472;51.554;7.812;2023-06-26T14:50:59;2.30;;;1.10;;
78197;SDS011;67472;51.554;7.812;2023-06-26T14:53:50;4.13;;;1.58;;
78197;SDS011;67472;51.554;7.812;2023-06-26T14:56:36;8.30;;;1.40;;
78197;SDS011;67472;51.554;7.812;2023-06-26T14:59:22;3.78;;;1.40;;
78197;SDS011;67472;51.554;7.812;2023-06-26T15:02:11;3.53;;;1.23;;
78197;SDS011;67472;51.554;7.812;2023-06-26T15:05:03;5.05;;;0.80;;
78197;SDS011;67472;51.554;7.812;2023-06-26T15:07:49;1.88;;;1.20;;
78197;SDS011;67472;51.554;7.812;2023-06-26T15:10:37;6.13;;;1.30;;
78197;SDS011;67472;51.554;7.812;2023-06-26T15:13:31;1.70;;;0.98;;
78197;SDS011;67472;51.554;7.812;2023-06-26T15:16:22;5.13;;;1.60;;
78197;SDS011;67472;51.554;7.812;2023-06-26T15:19:16;2.85;;;1.00;;
78197;SDS011;67472;51.554;7.812;2023-06-26T15:22:17;2.72;;;1.10;;
78197;SDS011;67472;51.554;7.812;2023-06-26T15:25:14;4.30;;;1.30;;
78197;SDS011;67472;51.554;7.812;2023-06-26T15:28:11;2.53;;;1.17;;
78197;SDS011;67472;51.554;7.812;2023-06-26T15:30:57;5.45;;;1.45;;
78197;SDS011;67472;51.554;7.812;2023-06-26T15:33:45;2.63;;;1.20;;
78197;SDS011;67472;51.554;7.812;2023-06-26T15:36:31;3.65;;;1.30;;
78197;SDS011;67472;51.554;7.812;2023-06-26T15:39:26;2.65;;;1.50;;
78197;SDS011;67472;51.554;7.812;2023-06-26T15:42:14;3.10;;;1.55;;
78197;SDS011;67472;51.554;7.812;2023-06-26T15:45:05;1.80;;;1.27;;
78197;SDS011;67472;51.554;7.812;2023-06-26T15:47:55;1.30;;;0.93;;
78197;SDS011;67472;51.554;7.812;2023-06-26T15:50:45;4.32;;;1.48;;
78197;SDS011;67472;51.554;7.812;2023-06-26T15:53:38;2.95;;;1.10;;
78197;SDS011;67472;51.554;7.812;2023-06-26T15:56:30;5.20;;;1.02;;
78197;SDS011;67472;51.554;7.812;2023-06-26T15:59:16;3.47;;;1.25;;
78197;SDS011;67472;51.554;7.812;2023-06-26T16:02:06;4.28;;;1.48;;
78197;SDS011;67472;51.554;7.812;2023-06-26T16:04:55;2.20;;;0.88;;
78197;SDS011;67472;51.554;7.812;2023-06-26T16:07:47;6.82;;;1.40;;
78197;SDS011;67472;51.554;7.812;2023-06-26T16:10:38;7.88;;;1.95;;
78197;SDS011;67472;51.554;7.812;2023-06-26T16:13:25;3.17;;;1.33;;
78197;SDS011;67472;51.554;7.812;2023-06-26T16:16:14;2.90;;;1.30;;
78197;SDS011;67472;51.554;7.812;2023-06-26T16:19:04;4.70;;;1.25;;
78197;SDS011;67472;51.554;7.812;2023-06-26T16:21:55;1.50;;;1.00;;
78197;SDS011;67472;51.554;7.812;2023-06-26T16:24:49;2.67;;;1.30;;
78197;SDS011;67472;51.554;7.812;2023-06-26T16:27:36;1.30;;;1.20;;
78197;SDS011;67472;51.554;7.812;2023-06-26T16:30:27;2.40;;;1.45;;
78197;SDS011;67472;51.554;7.812;2023-06-26T16:33:18;5.57;;;1.52;;
78197;SDS011;67472;51.554;7.812;2023-06-26T16:36:13;2.58;;;1.40;;
78197;SDS011;67472;51.554;7.812;2023-06-26T16:39:01;9.48;;;1.50;;
78197;SDS011;67472;51.554;7.812;2023-06-26T16:41:52;8.20;;;1.63;;
78197;SDS011;67472;51.554;7.812;2023-06-26T16:44:39;2.40;;;1.50;;
78197;SDS011;67472;51.554;7.812;2023-06-26T16:47:26;4.35;;;1.60;;
78197;SDS011;67472;51.554;7.812;2023-06-26T16:50:45;4.43;;;1.45;;
78197;SDS011;67472;51.554;7.812;2023-06-26T16:53:34;2.90;;;1.52;;
78197;SDS011;67472;51.554;7.812;2023-06-26T16:56:21;2.50;;;1.13;;
78197;SDS011;67472;51.554;7.812;2023-06-26T16:59:08;2.10;;;1.30;;
78197;SDS011;67472;51.554;7.812;2023-06-26T17:02:00;3.10;;;1.00;;
78197;SDS011;67472;51.554;7.812;2023-06-26T17:04:46;4.07;;;1.75;;
78197;SDS011;67472;51.554;7.812;2023-06-26T17:07:34;3.15;;;1.10;;
78197;SDS011;67472;51.554;7.812;2023-06-26T17:10:43;2.88;;;0.98;;
78197;SDS011;67472;51.554;7.812;2023-06-26T17:13:32;1.42;;;1.17;;